Time;durP1;ratioP1;P1;durP2;ratioP2;P2;SDS_P1;SDS_P2;PMS_P1;PMS_P2;Temp;Humidity;BMP_temperature;BMP_pressure;BME280_temperature;BME280_humidity;BME280_pressure;Samples;Min_cycle;Max_cycle;Signal;HPM_P1;HPM_P2
2022/03/08 00:01:01;;;;;;;;;35.67;31.33;;;;;17.56;20.13;101247.31;5077838;28;45453;-79
2022/03/08 00:03:27;;;;;;;;;35.00;32.00;;;;;17.75;19.89;101274.97;5077517;28;45747;-79
2022/03/08 00:05:54;;;;;;;;;45.00;38.67;;;;;17.67;20.10;101272.31;5059413;28;45365;-79
2022/03/08 00:08:19;;;;;;;;;36.33;32.67;;;;;17.74;19.83;101271.41;5075959;28;45685;-79
2022/03/08 00:10:44;;;;;;;;;39.67;36.33;;;;;17.71;19.98;101278.59;5077328;28;45917;-78
2022/03/08 00:13:10;;;;;;;;;39.33;35.33;;;;;17.60;19.91;101271.44;5058415;28;45394;-79
2022/03/08 00:15:35;;;;;;;;;42.67;35.33;;;;;17.66;20.37;101271.44;5077457;28;45489;-80
2022/03/08 00:18:01;;;;;;;;;42.33;38.00;;;;;17.60;19.81;101244.59;5077554;28;45438;-79
2022/03/08 00:20:26;;;;;;;;;39.33;32.33;;;;;17.72;20.23;101265.16;5077434;28;46604;-79
2022/03/08 00:22:52;;;;;;;;;41.67;37.67;;;;;17.73;20.13;101258.88;5077217;28;45367;-79
2022/03/08 00:25:18;;;;;;;;;39.33;36.33;;;;;17.66;19.98;101247.28;5077764;28;45742;-78
2022/03/08 00:27:47;;;;;;;;;46.00;39.33;;;;;17.50;20.32;101234.78;5077686;28;45507;-78
2022/03/08 00:30:17;;;;;;;;;39.67;36.67;;;;;17.64;20.18;101249.06;5077388;28;46322;-77
2022/03/08 00:32:44;;;;;;;;;43.67;38.67;;;;;17.67;20.10;101275.00;5077494;28;45433;-78
2022/03/08 00:35:10;;;;;;;;;41.00;37.33;;;;;17.52;20.06;101245.53;5059097;28;45408;-78
2022/03/08 00:37:37;;;;;;;;;43.00;34.33;;;;;17.55;20.02;101259.84;5059074;28;45364;-78
2022/03/08 00:40:05;;;;;;;;;39.00;30.33;;;;;17.65;19.86;101271.44;5077315;28;45371;-77
2022/03/08 00:42:31;;;;;;;;;41.33;38.67;;;;;17.48;20.36;101245.53;5077113;28;45445;-78
2022/03/08 00:44:56;;;;;;;;;37.33;35.67;;;;;17.61;20.33;101269.66;5077153;28;45301;-78
2022/03/08 00:47:21;;;;;;;;;39.33;32.33;;;;;17.49;20.23;101239.28;5077168;28;45592;-78
2022/03/08 00:49:47;;;;;;;;;39.33;37.00;;;;;17.58;20.22;101259.81;5077359;28;46443;-78
2022/03/08 00:52:12;;;;;;;;;48.00;39.00;;;;;17.52;20.35;101262.50;5076930;28;45327;-77
2022/03/08 00:54:38;;;;;;;;;41.00;36.67;;;;;17.47;20.17;101253.59;5059001;28;45796;-78
2022/03/08 00:57:04;;;;;;;;;40.33;37.33;;;;;17.52;20.29;101246.41;5077331;28;45429;-78
2022/03/08 00:59:30;;;;;;;;;33.00;33.00;;;;;17.47;20.63;101258.94;5059002;28;48314;-78
2022/03/08 01:01:55;;;;;;;;;48.50;41.75;;;;;17.38;20.31;101251.78;5075772;28;45361;-78
2022/03/08 01:04:20;;;;;;;;;53.00;44.50;;;;;17.36;20.14;101240.19;5077012;28;45378;-77
2022/03/08 01:06:46;;;;;;;;;43.33;38.33;;;;;17.43;20.49;101239.28;5076884;28;45362;-78
2022/03/08 01:09:11;;;;;;;;;45.33;38.33;;;;;17.45;20.41;101236.59;5075641;28;46071;-78
2022/03/08 01:11:39;;;;;;;;;46.00;40.50;;;;;17.38;20.59;101233.00;5075640;28;45354;-78
2022/03/08 01:14:08;;;;;;;;;52.00;39.33;;;;;17.21;20.81;101242.88;5058800;28;45429;-78
2022/03/08 01:16:34;;;;;;;;;50.00;37.00;;;;;17.30;20.52;101257.16;5076812;28;45498;-78
2022/03/08 01:19:00;;;;;;;;;47.75;40.25;;;;;17.37;20.70;101252.72;5058520;28;46345;-78
2022/03/08 01:21:25;;;;;;;;;39.33;36.00;;;;;17.25;20.43;101215.16;5057990;28;45325;-79
2022/03/08 01:23:51;;;;;;;;;49.33;40.33;;;;;17.40;20.39;101225.88;5076117;28;45189;-78
2022/03/08 01:26:16;;;;;;;;;43.00;39.00;;;;;17.35;20.49;101227.66;5076067;28;45502;-77
2022/03/08 01:28:42;;;;;;;;;46.00;40.67;;;;;17.39;20.13;101240.16;5076391;28;45369;-77
2022/03/08 01:31:07;;;;;;;;;44.67;40.00;;;;;17.33;20.53;101229.47;5076702;28;45410;-77
2022/03/08 01:33:33;;;;;;;;;49.33;37.67;;;;;17.36;20.34;101223.22;5076753;28;45575;-77
2022/03/08 01:35:58;;;;;;;;;42.25;38.00;;;;;17.30;20.55;101221.44;5076715;27;45702;-77
2022/03/08 01:38:24;;;;;;;;;44.75;37.75;;;;;17.30;20.44;101230.34;5076271;28;45363;-77
2022/03/08 01:40:51;;;;;;;;;49.67;42.00;;;;;17.41;21.01;101235.72;5075231;28;45496;-77
2022/03/08 01:43:17;;;;;;;;;48.67;41.67;;;;;17.23;20.34;101215.16;5076557;28;45471;-76
2022/03/08 01:45:42;;;;;;;;;43.33;34.67;;;;;17.13;20.63;101221.44;5076516;28;45331;-77
2022/03/08 01:48:08;;;;;;;;;42.33;38.00;;;;;17.08;20.32;101225.91;5076397;28;45482;-77
2022/03/08 01:50:33;;;;;;;;;40.67;35.67;;;;;17.02;20.61;101228.56;5057750;28;45425;-78
2022/03/08 01:52:59;;;;;;;;;41.33;37.33;;;;;17.02;20.61;101234.84;5076633;28;45392;-78
2022/03/08 01:55:25;;;;;;;;;40.33;34.33;;;;;17.24;20.66;101242.88;5076084;28;45413;-78
2022/03/08 01:57:51;;;;;;;;;37.00;34.67;;;;;17.26;20.52;101233.94;5074746;28;48094;-78
2022/03/08 02:00:23;;;;;;;;;31.00;27.00;;;;;17.15;20.71;101215.16;5076173;28;45384;-78
2022/03/08 02:02:48;;;;;;;;;43.33;36.33;;;;;17.12;20.84;101238.41;5075993;28;45356;-78
2022/03/08 02:05:13;;;;;;;;;41.33;38.00;;;;;16.97;20.75;101201.78;5057171;28;45339;-79
2022/03/08 02:07:39;;;;;;;;;40.33;36.00;;;;;16.92;20.83;101220.53;5075899;28;46381;-78
2022/03/08 02:10:07;;;;;;;;;46.67;37.67;;;;;17.11;20.85;101229.47;5075911;28;45465;-78
2022/03/08 02:12:32;;;;;;;;;37.67;33.67;;;;;17.08;20.83;101213.38;5075979;28;45209;-78
2022/03/08 02:14:57;;;;;;;;;40.00;33.33;;;;;16.92;20.70;101195.53;5075906;28;45800;-78
2022/03/08 02:17:23;;;;;;;;;50.33;41.33;;;;;17.03;20.65;101227.69;5074421;28;48101;-77
2022/03/08 02:19:48;;;;;;;;;44.67;37.67;;;;;16.98;20.66;101215.19;5075361;28;45258;-78
2022/03/08 02:22:14;;;;;;;;;45.67;35.67;;;;;17.06;20.86;101222.31;5076200;27;45323;-78
2022/03/08 02:24:39;;;;;;;;;48.33;39.00;;;;;16.98;20.89;101215.19;5057746;28;45485;-78
2022/03/08 02:27:06;;;;;;;;;36.00;32.67;;;;;17.02;21.06;101221.44;5075656;28;46171;-78
2022/03/08 02:29:31;;;;;;;;;38.33;28.67;;;;;16.82;21.01;101194.63;5075622;28;45477;-78
2022/03/08 02:31:57;;;;;;;;;39.00;36.00;;;;;16.81;21.03;101191.03;5075850;28;45391;-78
2022/03/08 02:34:22;;;;;;;;;42.00;38.00;;;;;16.48;21.24;101118.69;5057263;28;45512;-78
2022/03/08 02:37:06;;;;;;;;;44.67;38.00;;;;;16.90;21.53;101195.50;5090400;27;46221;-78
2022/03/08 02:39:31;;;;;;;;;43.67;38.33;;;;;16.91;21.23;101183.03;5096068;27;45332;-78
2022/03/08 02:41:57;;;;;;;;;40.67;34.00;;;;;17.01;21.06;101210.72;5096008;27;45434;-78
2022/03/08 02:44:22;;;;;;;;;47.33;37.33;;;;;16.83;21.03;101196.38;5077522;27;45444;-78
2022/03/08 02:46:47;;;;;;;;;43.33;36.67;;;;;16.75;21.03;101182.09;5095911;27;45424;-78
2022/03/08 02:49:13;;;;;;;;;46.33;41.33;;;;;16.83;20.98;101185.66;5095723;27;45784;-78
2022/03/08 02:51:38;;;;;;;;;40.33;38.67;;;;;16.97;21.10;101210.72;5096044;27;45524;-78
2022/03/08 02:54:03;;;;;;;;;40.33;35.00;;;;;17.02;20.88;101205.34;5096195;27;45366;-78
2022/03/08 02:56:30;;;;;;;;;37.00;33.67;;;;;16.70;21.26;101200.84;5077146;27;48438;-77
2022/03/08 02:58:55;;;;;;;;;42.00;36.33;;;;;16.75;21.13;101174.03;5096075;27;45310;-78
2022/03/08 03:01:20;;;;;;;;;41.67;37.67;;;;;16.89;20.95;101184.81;5095892;27;45412;-78
2022/03/08 03:03:46;;;;;;;;;47.00;39.00;;;;;17.04;21.04;101190.16;5095627;27;45599;-78
2022/03/08 03:06:11;;;;;;;;;38.33;35.00;;;;;17.02;21.18;101189.28;5077439;27;46995;-78
2022/03/08 03:08:36;;;;;;;;;38.00;33.00;;;;;16.98;20.82;101172.28;5095574;27;45427;-78
2022/03/08 03:11:02;;;;;;;;;44.00;39.00;;;;;17.22;20.79;101181.19;5096164;27;45569;-78
2022/03/08 03:13:27;;;;;;;;;43.33;35.67;;;;;17.12;21.04;101166.03;5095561;27;45318;-78
2022/03/08 03:15:52;;;;;;;;;42.67;37.33;;;;;17.16;20.81;101175.84;5095361;27;45324;-78
2022/03/08 03:18:18;;;;;;;;;41.33;38.00;;;;;17.14;20.77;101173.19;5095412;27;45380;-78
2022/03/08 03:20:43;;;;;;;;;46.50;40.75;;;;;17.19;20.42;101174.97;5095551;27;45449;-78
2022/03/08 03:23:08;;;;;;;;;44.67;38.33;;;;;17.04;20.84;101160.66;5095586;27;45706;-79
2022/03/08 03:25:34;;;;;;;;;33.67;33.33;;;;;16.93;20.92;101158.03;5095414;27;46272;-78
2022/03/08 03:27:59;;;;;;;;;52.00;43.33;;;;;16.48;21.24;101122.25;5095772;27;45312;-78
2022/03/08 03:30:24;;;;;;;;;48.00;39.00;;;;;16.59;21.53;101149.03;5095624;27;45358;-77
2022/03/08 03:32:50;;;;;;;;;46.67;42.00;;;;;16.37;21.51;101121.34;5095188;27;45512;-77
2022/03/08 03:35:16;;;;;;;;;41.33;36.00;;;;;16.80;21.18;101178.50;5092994;27;46592;-77
2022/03/08 03:37:42;;;;;;;;;42.33;37.00;;;;;16.75;21.51;101171.38;5074849;28;45353;-78
2022/03/08 03:40:08;;;;;;;;;41.00;36.00;;;;;16.45;21.12;101122.25;5074872;28;45397;-77
2022/03/08 03:42:33;;;;;;;;;48.00;36.00;;;;;16.56;21.33;101146.38;5074633;28;45507;-79
2022/03/08 03:44:59;;;;;;;;;51.25;39.00;;;;;16.56;21.44;101146.38;5056519;28;47876;-78
2022/03/08 03:47:24;;;;;;;;;45.50;36.00;;;;;16.77;21.62;101167.78;5074521;28;45509;-78
2022/03/08 03:49:50;;;;;;;;;39.33;34.33;;;;;16.80;21.57;101159.75;5078318;28;45319;-78
2022/03/08 03:52:15;;;;;;;;;43.67;39.67;;;;;16.77;21.71;101154.41;5078534;28;45386;-78
2022/03/08 03:54:40;;;;;;;;;40.25;39.00;;;;;16.63;21.58;101143.69;5078061;28;45320;-78
2022/03/08 03:57:08;;;;;;;;;47.00;39.67;;;;;16.58;21.31;101121.38;5059813;28;45570;-77
2022/03/08 03:59:33;;;;;;;;;44.25;34.75;;;;;16.60;21.37;101135.66;5078228;28;45426;-76
2022/03/08 04:01:58;;;;;;;;;43.67;37.67;;;;;16.58;21.50;101147.25;5077515;28;45286;-76
2022/03/08 04:04:24;;;;;;;;;46.67;38.00;;;;;16.66;21.34;101149.94;5077800;28;45415;-76
2022/03/08 04:06:49;;;;;;;;;47.00;40.00;;;;;16.64;21.32;101152.63;5077945;28;45339;-76
2022/03/08 04:09:14;;;;;;;;;41.75;38.25;;;;;16.58;21.21;101139.22;5077862;28;45248;-76
2022/03/08 04:11:40;;;;;;;;;38.67;33.67;;;;;16.62;21.37;101165.13;5076535;28;45362;-76
2022/03/08 04:14:05;;;;;;;;;47.75;39.00;;;;;16.48;21.71;101158.84;5077809;28;45314;-76
2022/03/08 04:16:31;;;;;;;;;45.67;35.67;;;;;16.59;21.64;101165.13;5077003;28;45460;-76
2022/03/08 04:18:56;;;;;;;;;44.67;39.00;;;;;16.51;21.70;101173.16;5078042;28;45423;-76
2022/03/08 04:21:22;;;;;;;;;43.67;32.00;;;;;16.43;21.77;101154.38;5077651;28;45544;-75
2022/03/08 04:23:47;;;;;;;;;43.67;39.67;;;;;16.42;21.51;101154.38;5077505;28;45394;-76
2022/03/08 04:26:12;;;;;;;;;30.00;22.33;;;;;16.49;21.65;101166.00;5077814;28;45372;-75
2022/03/08 04:28:38;;;;;;;;;55.33;39.33;;;;;16.41;21.61;101142.78;5059168;28;45308;-76
2022/03/08 04:31:03;;;;;;;;;46.00;41.50;;;;;16.38;21.60;101144.56;5077311;28;45379;-76
2022/03/08 04:33:29;;;;;;;;;34.50;29.50;;;;;16.50;21.37;101170.44;5077437;28;46183;-76
2022/03/08 04:35:54;;;;;;;;;43.00;37.00;;;;;16.42;21.32;101141.88;5085294;27;45484;-76
2022/03/08 04:38:19;;;;;;;;;40.33;39.00;;;;;16.39;21.71;101146.34;5098098;27;45340;-76
2022/03/08 04:40:45;;;;;;;;;42.33;37.33;;;;;16.41;21.73;101153.50;5097666;27;45379;-79
2022/03/08 04:43:10;;;;;;;;;46.33;41.00;;;;;16.41;21.65;101149.91;5097799;27;46135;-78
2022/03/08 04:45:35;;;;;;;;;45.33;38.33;;;;;16.23;21.76;101126.69;5097656;27;45333;-78
2022/03/08 04:48:01;;;;;;;;;37.00;31.00;;;;;16.37;21.76;101154.41;5097945;27;45334;-79
2022/03/08 04:50:26;;;;;;;;;40.33;35.33;;;;;16.32;21.83;101161.50;5097879;27;45299;-79
2022/03/08 04:52:52;;;;;;;;;49.33;39.67;;;;;16.28;21.84;101155.25;5097450;27;45365;-78
2022/03/08 04:55:19;;;;;;;;;51.00;42.33;;;;;16.21;21.66;101158.81;5097623;27;45664;-79
2022/03/08 04:57:46;;;;;;;;;41.00;36.00;;;;;15.97;21.88;101124.84;5097590;27;45521;-79
2022/03/08 05:00:12;;;;;;;;;44.50;39.00;;;;;15.69;21.86;101060.53;5096757;27;45587;-78
2022/03/08 05:02:40;;;;;;;;;49.67;38.67;;;;;16.12;21.71;101130.25;5097237;27;45539;-79
2022/03/08 05:05:08;;;;;;;;;38.00;31.67;;;;;15.98;21.92;101113.28;5079069;27;45618;-78
2022/03/08 05:07:37;;;;;;;;;38.50;36.25;;;;;16.02;22.03;101128.44;5097333;27;45254;-79
2022/03/08 05:10:07;;;;;;;;;39.33;35.00;;;;;15.89;21.90;101091.81;5097341;27;45367;-79
2022/03/08 05:12:34;;;;;;;;;49.33;39.00;;;;;15.94;21.78;101098.09;5097050;27;45331;-79
2022/03/08 05:14:59;;;;;;;;;41.50;33.50;;;;;15.88;21.87;101101.66;5082304;27;45363;-78
2022/03/08 05:17:25;;;;;;;;;46.25;37.00;;;;;16.09;21.90;101134.72;5076792;28;45780;-78
2022/03/08 05:19:51;;;;;;;;;48.00;43.00;;;;;16.19;21.72;101127.59;5077042;28;45362;-78
2022/03/08 05:22:16;;;;;;;;;47.25;39.00;;;;;16.20;22.08;101145.41;5076704;28;45452;-78
2022/03/08 05:24:41;;;;;;;;;46.75;40.50;;;;;15.68;22.00;101081.91;5076666;28;45478;-78
2022/03/08 05:27:07;;;;;;;;;50.00;42.50;;;;;16.00;22.41;101151.63;5076582;28;45334;-79
2022/03/08 05:29:33;;;;;;;;;44.00;34.33;;;;;15.94;22.15;101155.16;5075162;28;45573;-78
2022/03/08 05:31:58;;;;;;;;;42.33;39.00;;;;;15.58;22.37;101095.28;5058032;28;47161;-78
2022/03/08 05:34:24;;;;;;;;;45.75;40.75;;;;;15.73;22.60;101113.16;5076286;28;45462;-78
2022/03/08 05:36:49;;;;;;;;;48.75;41.00;;;;;15.88;22.42;101133.75;5076445;28;45455;-78
2022/03/08 05:39:15;;;;;;;;;47.50;40.50;;;;;15.54;22.46;101065.81;5076429;28;45367;-78
2022/03/08 05:41:40;;;;;;;;;53.00;39.00;;;;;16.03;22.11;101132.00;5075972;28;45783;-78
2022/03/08 05:44:06;;;;;;;;;47.00;41.75;;;;;15.99;22.46;101128.44;5076394;28;45486;-79
2022/03/08 05:46:31;;;;;;;;;41.75;38.00;;;;;16.07;22.04;101132.00;5058350;28;45415;-79
2022/03/08 05:48:56;;;;;;;;;48.75;41.50;;;;;15.91;22.27;101101.66;5076238;28;45244;-79
2022/03/08 05:51:22;;;;;;;;;42.67;38.67;;;;;15.72;22.36;101073.94;5057859;28;47125;-79
2022/03/08 05:53:47;;;;;;;;;53.00;41.50;;;;;15.85;21.87;101112.34;5075761;28;45561;-79
2022/03/08 05:56:12;;;;;;;;;49.33;40.33;;;;;15.56;22.06;101061.41;5057583;28;45506;-79
2022/03/08 05:58:38;;;;;;;;;42.75;35.00;;;;;15.64;22.42;101070.34;5075933;28;45462;-79
2022/03/08 06:01:03;;;;;;;;;31.00;24.25;;;;;15.91;22.60;101112.34;5075892;28;46260;-79
2022/03/08 06:03:29;;;;;;;;;51.75;44.00;;;;;16.02;22.23;101109.72;5076163;28;45259;-79
2022/03/08 06:05:54;;;;;;;;;48.25;40.25;;;;;16.02;22.38;101103.44;5057733;28;45324;-79
2022/03/08 06:08:19;;;;;;;;;40.00;38.00;;;;;16.09;22.37;101157.00;5076282;28;45572;-79
2022/03/08 06:10:45;;;;;;;;;47.67;40.67;;;;;16.06;22.05;101158.75;5074009;28;46047;-79
2022/03/08 06:13:10;;;;;;;;;45.25;39.75;;;;;15.95;22.36;101123.97;5075578;28;45288;-79
2022/03/08 06:15:35;;;;;;;;;51.50;42.00;;;;;16.08;21.96;101120.41;5095350;27;45222;-79
2022/03/08 06:18:01;;;;;;;;;41.00;36.67;;;;;15.79;22.58;101082.88;5096019;27;45614;-79
2022/03/08 06:20:26;;;;;;;;;46.50;42.25;;;;;16.19;22.29;101139.19;5096244;27;46801;-79
2022/03/08 06:22:53;;;;;;;;;57.75;43.75;;;;;15.98;22.31;101083.81;5077549;27;45686;-79
2022/03/08 06:25:19;;;;;;;;;44.75;40.00;;;;;16.21;21.90;101117.78;5096070;27;45449;-79
2022/03/08 06:27:44;;;;;;;;;41.75;37.75;;;;;16.15;22.32;101131.16;5095990;27;45412;-79
2022/03/08 06:30:10;;;;;;;;;51.00;38.25;;;;;15.93;22.27;101096.28;5077630;27;47004;-79
2022/03/08 06:32:35;;;;;;;;;54.25;46.00;;;;;16.26;22.06;101151.69;5077800;27;45783;-79
2022/03/08 06:35:01;;;;;;;;;56.25;42.25;;;;;16.07;22.22;101140.03;5096400;27;45375;-79
2022/03/08 06:37:26;;;;;;;;;50.75;42.00;;;;;16.04;21.64;101123.09;5095566;27;45407;-79
2022/03/08 06:39:51;;;;;;;;;51.25;42.75;;;;;16.14;22.27;101148.97;5096544;27;45541;-79
2022/03/08 06:42:18;;;;;;;;;50.00;40.00;;;;;16.35;22.06;101160.63;5096048;27;45350;-78
2022/03/08 06:44:44;;;;;;;;;40.50;34.75;;;;;16.31;21.84;101154.38;5077752;27;45609;-78
2022/03/08 06:47:10;;;;;;;;;51.50;41.00;;;;;16.23;21.92;101124.00;5095725;27;45858;-78
2022/03/08 06:49:40;;;;;;;;;49.50;41.00;;;;;16.16;21.74;101096.34;5095824;27;45743;-78
2022/03/08 06:52:07;;;;;;;;;53.25;42.00;;;;;16.28;21.95;101125.78;5089346;27;45606;-77
2022/03/08 06:54:33;;;;;;;;;44.00;39.33;;;;;16.07;21.81;101085.63;5075555;27;45326;-77
2022/03/08 06:56:58;;;;;;;;;47.50;41.25;;;;;16.53;22.02;101155.28;5075135;27;45244;-78
2022/03/08 06:59:24;;;;;;;;;53.25;41.75;;;;;16.28;21.91;101127.59;5056774;28;48364;-78
2022/03/08 07:01:49;;;;;;;;;50.33;42.33;;;;;16.52;22.04;101164.22;5075047;28;45337;-78
2022/03/08 07:04:14;;;;;;;;;45.75;35.25;;;;;16.44;22.07;101142.78;5075335;28;45239;-78
2022/03/08 07:06:40;;;;;;;;;44.00;36.00;;;;;16.07;22.17;101081.16;5075300;28;45486;-78
2022/03/08 07:09:06;;;;;;;;;58.25;42.75;;;;;16.70;22.05;101176.72;5073359;28;47106;-79
2022/03/08 07:11:31;;;;;;;;;41.25;38.25;;;;;16.40;21.98;101108.88;5075139;28;45282;-80
2022/03/08 07:13:56;;;;;;;;;57.50;45.00;;;;;16.58;22.12;101139.22;5075172;28;45725;-79
2022/03/08 07:16:22;;;;;;;;;47.75;40.00;;;;;16.65;22.04;101143.69;5074970;28;45582;-79
2022/03/08 07:18:47;;;;;;;;;50.00;44.00;;;;;16.55;22.09;101112.44;5074620;28;46247;-79
2022/03/08 07:21:13;;;;;;;;;44.50;38.25;;;;;16.56;22.13;101138.34;5074817;28;45338;-79
2022/03/08 07:23:39;;;;;;;;;53.25;44.75;;;;;16.38;22.33;101107.94;5059839;28;45528;-80
2022/03/08 07:26:04;;;;;;;;;52.75;44.00;;;;;16.66;21.95;101136.56;5078387;28;45584;-80
2022/03/08 07:28:30;;;;;;;;;56.25;45.00;;;;;16.88;22.05;101178.56;5078442;28;45523;-80
2022/03/08 07:30:55;;;;;;;;;44.75;40.25;;;;;16.45;21.78;101120.50;5078293;28;45471;-80
2022/03/08 07:33:20;;;;;;;;;58.50;44.50;;;;;16.70;22.05;101146.38;5078607;28;45502;-80
2022/03/08 07:35:46;;;;;;;;;48.50;39.25;;;;;16.81;21.97;101145.47;5078284;28;45696;-80
2022/03/08 07:38:11;;;;;;;;;55.00;43.75;;;;;16.44;21.68;101059.78;5077731;28;45624;-79
2022/03/08 07:40:37;;;;;;;;;61.00;43.25;;;;;16.53;21.98;101095.50;5060133;28;45471;-80
2022/03/08 07:43:02;;;;;;;;;56.00;43.75;;;;;16.84;21.81;101167.81;5078167;28;45568;-79
2022/03/08 07:45:28;;;;;;;;;55.75;43.50;;;;;16.82;21.87;101151.75;5078211;28;45515;-79
2022/03/08 07:47:54;;;;;;;;;58.75;49.25;;;;;16.85;21.63;101157.09;5086451;27;45741;-79
2022/03/08 07:50:19;;;;;;;;;53.50;41.25;;;;;16.99;21.70;101175.88;5098556;27;45271;-80
2022/03/08 07:52:45;;;;;;;;;54.25;44.00;;;;;16.54;21.71;101099.94;5085462;27;45249;-89
2022/03/08 07:55:10;;;;;;;;;54.25;44.25;;;;;17.03;21.25;101183.03;5060279;28;45322;-82
2022/03/08 07:57:36;;;;;;;;;51.00;43.00;;;;;16.97;21.49;101172.28;5078025;28;45513;-81
2022/03/08 08:00:04;;;;;;;;;59.25;45.50;;;;;17.08;21.18;101151.72;5078011;28;45309;-82
2022/03/08 08:02:30;;;;;;;;;54.75;45.00;;;;;16.46;21.27;101126.72;5094246;27;45354;-81
2022/03/08 08:04:56;;;;;;;;;46.25;41.75;;;;;16.59;21.71;101183.88;5080976;27;45468;-81
2022/03/08 08:07:21;;;;;;;;;52.75;42.50;;;;;16.87;21.52;101182.09;5073979;28;46119;-81
2022/03/08 08:09:47;;;;;;;;;59.25;44.50;;;;;16.61;21.25;101109.78;5077840;28;45349;-81
2022/03/08 08:12:12;;;;;;;;;46.75;40.75;;;;;17.21;21.22;101166.00;5088895;27;45681;-81
2022/03/08 08:14:38;;;;;;;;;54.25;42.75;;;;;16.72;21.34;101075.84;5095058;27;45595;-82
2022/03/08 08:17:03;;;;;;;;;54.00;45.25;;;;;17.60;21.03;101200.78;5090912;27;45371;-82
2022/03/08 08:19:32;;;;;;;;;59.75;49.75;;;;;17.06;20.99;101123.13;5081372;27;45542;-82
2022/03/08 08:21:57;;;;;;;;;58.00;47.00;;;;;17.17;21.10;101168.69;5093562;27;46570;-79
2022/03/08 08:24:22;;;;;;;;;53.00;42.00;;;;;16.91;21.38;101102.63;5061537;27;45486;-83
2022/03/08 08:26:48;;;;;;;;;42.50;41.50;;;;;17.28;21.25;101166.88;5078909;27;45905;-82
2022/03/08 08:29:13;;;;;;;;;57.00;45.50;;;;;17.40;21.00;101176.72;5067662;27;45866;-81
2022/03/08 08:31:38;;;;;;;;;54.00;42.00;;;;;17.40;21.48;101168.66;5072557;27;45603;-81
2022/03/08 08:34:04;;;;;;;;;53.25;42.25;;;;;17.41;21.23;101163.28;5085255;27;45508;-82
2022/03/08 08:36:30;;;;;;;;;55.00;44.50;;;;;17.67;21.01;101165.88;5076134;27;46678;-82
2022/03/08 08:38:55;;;;;;;;;55.00;45.25;;;;;17.86;20.97;101203.41;5070386;27;45503;-81
2022/03/08 08:41:20;;;;;;;;;56.00;44.75;;;;;17.95;21.02;101198.00;5080309;27;46404;-80
2022/03/08 08:43:46;;;;;;;;;57.25;45.75;;;;;17.95;20.68;101175.66;5079817;27;45470;-81
2022/03/08 08:46:11;;;;;;;;;51.25;42.50;;;;;18.06;21.10;101206.03;5079680;27;47202;-84
2022/03/08 08:48:37;;;;;;;;;57.50;47.00;;;;;17.89;21.04;101156.84;5079423;27;45565;-81
2022/03/08 08:51:02;;;;;;;;;56.75;43.50;;;;;18.12;20.97;101180.94;5076952;27;45504;-80
2022/03/08 08:53:27;;;;;;;;;58.50;45.25;;;;;18.27;20.92;101198.72;5059382;27;45890;-81
2022/03/08 08:55:53;;;;;;;;;48.50;42.50;;;;;18.19;20.94;101198.78;5066694;28;48583;-83
2022/03/08 08:58:18;;;;;;;;;45.00;38.50;;;;;17.92;20.92;101181.03;5082939;27;45967;-82
2022/03/08 09:00:44;;;;;;;;;58.75;45.25;;;;;17.93;21.03;101217.69;5070339;27;45420;-84
2022/03/08 09:03:14;;;;;;;;;58.25;46.00;;;;;17.71;21.01;101136.38;5070478;27;45846;-82
2022/03/08 09:05:40;;;;;;;;;59.50;43.25;;;;;17.84;20.76;101117.47;5084544;27;46114;-84
2022/03/08 09:08:05;;;;;;;;;51.75;44.50;;;;;18.04;20.83;101126.38;5071001;27;45416;-83
2022/03/08 09:10:30;;;;;;;;;58.00;48.25;;;;;18.25;20.77;101160.25;5061829;27;45947;-83
2022/03/08 09:12:56;;;;;;;;;57.25;44.75;;;;;18.13;20.51;101121.84;5079246;27;45617;-82
2022/03/08 09:15:21;;;;;;;;;59.50;45.00;;;;;18.78;20.85;101207.34;5058549;27;47195;-80
2022/03/08 09:17:47;;;;;;;;;60.00;47.50;;;;;18.27;20.91;101128.91;5062389;27;45894;-81
2022/03/08 09:20:13;;;;;;;;;51.00;43.25;;;;;18.72;20.74;101209.19;5065437;27;45506;-83
2022/03/08 09:22:39;;;;;;;;;53.75;42.75;;;;;18.75;20.88;101185.88;5079103;27;45449;-81
2022/03/08 09:25:06;;;;;;;;;58.50;45.00;;;;;18.69;20.81;101161.72;5072041;27;45849;-82
2022/03/08 09:27:34;;;;;;;;;62.75;45.50;;;;;18.83;20.62;101173.28;5054757;28;45504;-80
2022/03/08 09:30:05;;;;;;;;;52.25;41.25;;;;;18.83;20.84;101173.28;5073362;27;45461;-80
2022/03/08 09:32:31;;;;;;;;;53.25;41.50;;;;;18.69;20.73;101142.91;5084756;27;45487;-80
2022/03/08 09:34:56;;;;;;;;;55.25;46.25;;;;;18.59;20.84;101106.28;5076579;27;45362;-81
2022/03/08 09:37:21;;;;;;;;;57.75;44.75;;;;;19.02;20.61;101187.47;5077450;27;45466;-83
2022/03/08 09:39:47;;;;;;;;;53.00;43.00;;;;;18.98;20.67;101155.25;5070885;27;45558;-79
2022/03/08 09:42:12;;;;;;;;;60.50;48.75;;;;;19.09;20.75;101153.34;5070362;27;45442;-86
2022/03/08 09:44:38;;;;;;;;;55.25;45.50;;;;;19.12;20.83;101147.94;5064797;27;48134;-80
2022/03/08 09:47:05;;;;;;;;;55.00;45.00;;;;;18.99;20.76;101128.34;5076808;27;45467;-82
2022/03/08 09:49:30;;;;;;;;;61.75;48.75;;;;;19.31;20.48;101169.25;5080307;27;46519;-81
2022/03/08 09:51:56;;;;;;;;;51.75;45.00;;;;;19.46;20.43;101155.63;5061074;28;45654;-82
2022/03/08 09:54:21;;;;;;;;;58.25;44.50;;;;;19.66;20.72;101179.63;5059158;28;47165;-81
2022/03/08 09:56:47;;;;;;;;;48.00;40.75;;;;;19.47;20.69;101138.59;5075548;27;45423;-82
2022/03/08 09:59:18;;;;;;;;;55.75;45.00;;;;;19.68;20.61;101164.34;5059705;27;45819;-82
2022/03/08 10:01:45;;;;;;;;;61.75;46.75;;;;;19.49;20.67;101107.19;5076795;27;45848;-83
2022/03/08 10:04:15;;;;;;;;;69.75;54.25;;;;;19.86;20.59;101143.53;5068851;27;48037;-83
2022/03/08 10:06:42;;;;;;;;;57.75;45.00;;;;;19.86;20.56;101154.31;5076409;27;45690;-80
2022/03/08 10:09:13;;;;;;;;;63.25;50.75;;;;;19.69;20.48;101116.81;5068693;27;45634;-80
2022/03/08 10:11:39;;;;;;;;;61.75;48.00;;;;;19.70;20.76;101114.09;5080822;27;45593;-83
2022/03/08 10:14:05;;;;;;;;;56.25;45.25;;;;;20.01;20.60;101158.56;5070055;27;46141;-83
2022/03/08 10:16:42;;;;;;;;;57.25;44.75;;;;;19.65;20.55;101085.44;5075670;27;47449;-81
2022/03/08 10:19:11;;;;;;;;;62.75;48.50;;;;;19.61;20.60;101078.34;5065357;28;45497;-77
2022/03/08 10:21:42;;;;;;;;;59.25;49.25;;;;;19.95;20.36;101153.28;5070207;27;45629;-80
2022/03/08 10:24:22;;;;;;;;;56.50;44.25;;;;;19.73;20.67;101107.75;5054614;27;47159;-80
2022/03/08 10:26:49;;;;;;;;;56.75;44.25;;;;;20.25;20.48;101148.38;5083162;27;45524;-79
2022/03/08 10:29:28;;;;;;;;;56.75;46.50;;;;;20.12;20.57;101137.75;5076489;27;45920;-79
2022/03/08 10:32:09;;;;;;;;;61.25;49.50;;;;;20.33;20.47;101147.34;5085241;27;45906;-79
2022/03/08 10:34:39;;;;;;;;;50.75;42.75;;;;;20.25;20.23;101127.69;5082782;27;47536;-78
2022/03/08 10:37:13;;;;;;;;;62.25;47.00;;;;;19.79;20.50;101112.16;5079645;27;45872;-83
2022/03/08 10:39:54;;;;;;;;;56.75;44.25;;;;;20.04;20.93;101154.06;5059841;27;45549;-82
2022/03/08 10:42:25;;;;;;;;;55.00;44.75;;;;;20.34;20.52;101148.25;5066829;28;45569;-82
2022/03/08 10:44:53;;;;;;;;;59.00;46.50;;;;;20.55;20.42;101153.28;5070179;27;48097;-83
2022/03/08 10:47:19;;;;;;;;;61.25;48.00;;;;;20.65;20.23;101155.84;5068846;27;45430;-83
2022/03/08 10:49:52;;;;;;;;;56.75;45.75;;;;;20.78;20.33;101143.06;5066078;27;45541;-83
2022/03/08 10:52:25;;;;;;;;;55.75;44.00;;;;;20.99;20.31;101147.19;5070341;27;45319;-82
2022/03/08 10:54:51;;;;;;;;;58.00;44.75;;;;;20.69;20.59;101077.59;5054139;27;47759;-82
2022/03/08 10:57:17;;;;;;;;;48.75;42.00;;;;;20.64;20.16;101057.88;5072115;27;45595;-83
2022/03/08 10:59:54;;;;;;;;;58.00;47.00;;;;;21.02;20.29;101112.06;5071754;27;45578;-82
2022/03/08 11:02:21;;;;;;;;;57.75;45.50;;;;;21.19;20.38;101134.22;5089553;27;45535;-83
2022/03/08 11:04:47;;;;;;;;;57.75;45.25;;;;;20.89;19.96;101079.94;5077118;27;45944;-84